createdAt,value
2022-10-17T00:01:10.580Z,91.35
2022-10-17T00:03:40.243Z,91.60
2022-10-17T00:06:14.169Z,91.50
2022-10-17T00:08:44.207Z,91.53
2022-10-17T00:11:24.498Z,91.69
2022-10-17T00:13:56.335Z,91.70
2022-10-17T00:16:31.138Z,91.63
2022-10-17T00:18:59.330Z,91.62
2022-10-17T00:21:27.389Z,91.62
2022-10-17T00:23:55.844Z,91.55
2022-10-17T00:26:24.054Z,91.57
2022-10-17T00:28:53.323Z,91.51
2022-10-17T00:31:23.511Z,91.62
2022-10-17T00:33:53.252Z,91.55
2022-10-17T00:36:25.499Z,91.56
2022-10-17T00:38:58.763Z,91.65
2022-10-17T00:41:32.115Z,91.78
2022-10-17T00:44:06.189Z,91.59
2022-10-17T00:46:38.298Z,91.57
2022-10-17T00:49:12.713Z,91.65
2022-10-17T00:52:02.017Z,91.57
2022-10-17T00:54:37.412Z,91.58
2022-10-17T00:57:06.201Z,91.56
2022-10-17T00:59:38.235Z,91.52
2022-10-17T01:02:14.814Z,91.53
2022-10-17T01:04:46.905Z,91.60
2022-10-17T01:07:15.179Z,91.78
2022-10-17T01:09:46.333Z,91.88
2022-10-17T01:12:22.387Z,91.73
2022-10-17T01:14:57.630Z,91.72
2022-10-17T01:17:56.184Z,91.77
2022-10-17T01:20:59.179Z,91.76
2022-10-17T01:23:54.641Z,91.75
2022-10-17T01:26:48.483Z,91.58
2022-10-17T01:30:21.248Z,91.51
2022-10-17T01:33:02.012Z,91.65
2022-10-17T01:35:42.827Z,91.54
2022-10-17T01:39:08.111Z,91.48
2022-10-17T01:41:57.368Z,91.52
2022-10-17T01:44:36.383Z,91.46
2022-10-17T01:47:11.243Z,91.54
2022-10-17T01:49:43.644Z,91.50
2022-10-17T01:52:24.076Z,91.61
2022-10-17T01:54:59.751Z,91.54
2022-10-17T01:57:40.031Z,91.50
2022-10-17T02:00:19.099Z,91.55
2022-10-17T02:03:00.450Z,91.76
2022-10-17T02:05:35.661Z,91.68
2022-10-17T02:08:04.588Z,91.77
2022-10-17T02:10:53.262Z,91.76
2022-10-17T02:13:50.380Z,91.74
2022-10-17T02:16:44.973Z,91.78
2022-10-17T02:19:36.872Z,91.75
2022-10-17T02:22:17.769Z,91.87
2022-10-17T02:24:59.776Z,91.77
2022-10-17T02:27:39.071Z,91.83
2022-10-17T02:30:14.507Z,91.76
2022-10-17T02:32:59.035Z,91.84
2022-10-17T02:35:33.445Z,91.82
2022-10-17T02:38:05.092Z,91.92
2022-10-17T02:40:34.926Z,91.88
2022-10-17T02:43:03.190Z,91.84
2022-10-17T02:45:36.904Z,91.86
2022-10-17T02:48:17.900Z,91.90
2022-10-17T02:51:14.335Z,91.89
2022-10-17T02:54:10.677Z,91.89
2022-10-17T02:56:50.732Z,91.91
2022-10-17T02:59:24.427Z,91.82
2022-10-17T03:01:53.534Z,91.75
2022-10-17T03:04:21.630Z,91.69
2022-10-17T03:06:49.751Z,91.72
2022-10-17T03:09:19.159Z,91.70
2022-10-17T03:11:47.118Z,91.61
2022-10-17T03:14:15.187Z,91.56
2022-10-17T03:16:44.017Z,91.53
2022-10-17T03:19:11.936Z,91.59
2022-10-17T03:21:40.122Z,91.59
2022-10-17T03:24:08.743Z,91.64
2022-10-17T03:26:36.941Z,91.56
2022-10-17T03:29:05.306Z,91.64
2022-10-17T03:31:33.652Z,91.70
2022-10-17T03:34:03.647Z,91.76
2022-10-17T03:36:31.601Z,91.86
2022-10-17T03:38:59.572Z,91.83
2022-10-17T03:41:28.056Z,91.81
2022-10-17T03:43:55.955Z,91.74
2022-10-17T03:46:24.229Z,91.71
2022-10-17T03:48:55.056Z,91.75
2022-10-17T03:51:23.075Z,91.85
2022-10-17T03:53:53.988Z,91.87
2022-10-17T03:56:25.379Z,91.83
2022-10-17T03:59:00.299Z,91.85
2022-10-17T04:01:28.825Z,91.87
2022-10-17T04:03:57.647Z,91.92
2022-10-17T04:06:27.528Z,91.79
2022-10-17T04:08:55.624Z,91.76
2022-10-17T04:11:28.459Z,91.74
2022-10-17T04:13:59.756Z,91.78
2022-10-17T04:16:28.190Z,91.78
2022-10-17T04:19:04.813Z,91.79
2022-10-17T04:21:37.881Z,91.79
2022-10-17T04:24:11.808Z,91.87
2022-10-17T04:26:59.859Z,91.84
2022-10-17T04:29:30.048Z,91.70
2022-10-17T04:32:18.172Z,91.67
2022-10-17T04:35:09.434Z,91.64
2022-10-17T04:37:37.623Z,91.72
2022-10-17T04:40:10.810Z,91.74
2022-10-17T04:42:38.773Z,91.69
2022-10-17T04:45:07.616Z,91.60
2022-10-17T04:47:35.912Z,91.69
2022-10-17T04:50:06.176Z,91.60
2022-10-17T04:52:37.612Z,91.64
2022-10-17T04:55:07.076Z,91.64
2022-10-17T04:57:35.808Z,91.65
2022-10-17T05:00:18.160Z,91.67
2022-10-17T05:02:56.771Z,91.67
2022-10-17T05:05:24.659Z,91.72
2022-10-17T05:07:53.820Z,91.62
2022-10-17T05:10:25.563Z,91.59
2022-10-17T05:12:53.975Z,91.54
2022-10-17T05:15:24.181Z,91.67
2022-10-17T05:17:57.670Z,91.59
2022-10-17T05:20:27.192Z,91.56
2022-10-17T05:22:55.176Z,91.66
2022-10-17T05:25:23.233Z,91.58
2022-10-17T05:27:51.326Z,91.54
2022-10-17T05:30:19.558Z,91.59
2022-10-17T05:32:47.861Z,91.64
2022-10-17T05:35:16.393Z,91.69
2022-10-17T05:37:44.323Z,91.61
2022-10-17T05:40:12.515Z,91.55
2022-10-17T05:42:49.659Z,91.70
2022-10-17T05:45:18.220Z,91.50
2022-10-17T05:47:47.531Z,91.51
2022-10-17T05:50:15.648Z,91.52
2022-10-17T05:52:58.421Z,91.52
2022-10-17T05:55:26.379Z,91.61
2022-10-17T05:57:54.564Z,91.66
2022-10-17T06:00:23.161Z,91.62
2022-10-17T06:02:56.088Z,91.52
2022-10-17T06:05:24.975Z,91.57
2022-10-17T06:07:55.990Z,91.55
2022-10-17T06:10:26.389Z,91.44
2022-10-17T06:12:54.764Z,91.51
2022-10-17T06:15:22.645Z,91.49
2022-10-17T06:17:57.049Z,91.61
2022-10-17T06:20:24.944Z,91.45
2022-10-17T06:22:53.443Z,91.43
2022-10-17T06:25:34.706Z,91.43
2022-10-17T06:28:02.924Z,91.40
2022-10-17T06:30:31.348Z,91.43
2022-10-17T06:32:59.254Z,91.39
2022-10-17T06:35:27.152Z,91.32
2022-10-17T06:37:55.001Z,91.29
2022-10-17T06:40:23.809Z,91.30
2022-10-17T06:42:51.924Z,91.29
2022-10-17T06:45:47.828Z,91.29
2022-10-17T06:48:27.295Z,91.29
2022-10-17T06:51:11.399Z,91.28
2022-10-17T06:53:50.791Z,91.17
2022-10-17T06:56:46.773Z,91.21
2022-10-17T06:59:32.459Z,91.15
2022-10-17T07:02:06.511Z,91.12
2022-10-17T07:04:34.658Z,91.10
2022-10-17T07:07:03.392Z,91.02
2022-10-17T07:09:33.180Z,90.98
2022-10-17T07:12:01.084Z,90.87
2022-10-17T07:14:32.188Z,90.90
2022-10-17T07:17:01.705Z,90.94
2022-10-17T07:19:32.684Z,90.93
2022-10-17T07:22:00.662Z,90.81
2022-10-17T07:24:28.742Z,90.77
2022-10-17T07:27:03.609Z,90.74
2022-10-17T07:29:31.667Z,90.79
2022-10-17T07:32:08.695Z,90.71
2022-10-17T07:34:37.952Z,90.67
2022-10-17T07:37:07.478Z,90.59
2022-10-17T07:39:35.847Z,90.42
2022-10-17T07:42:05.184Z,90.56
2022-10-17T07:44:33.750Z,90.63
2022-10-17T07:47:02.159Z,90.44
2022-10-17T07:49:31.062Z,90.43
2022-10-17T07:51:59.051Z,90.31
2022-10-17T07:54:26.937Z,90.20
2022-10-17T07:56:54.769Z,90.34
2022-10-17T07:59:22.616Z,90.33
2022-10-17T08:01:50.489Z,90.26
2022-10-17T08:04:18.443Z,90.07
2022-10-17T08:06:46.294Z,90.09
2022-10-17T08:09:14.186Z,89.96
2022-10-17T08:11:44.118Z,89.77
2022-10-17T08:14:13.899Z,89.69
2022-10-17T08:16:41.757Z,89.74
2022-10-17T08:19:11.529Z,89.55
2022-10-17T08:21:39.505Z,89.58
2022-10-17T08:24:07.389Z,89.50
2022-10-17T08:26:39.189Z,89.54
2022-10-17T08:29:17.088Z,89.43
2022-10-17T08:31:47.852Z,89.22
2022-10-17T08:34:16.908Z,89.04
2022-10-17T08:36:44.765Z,89.14
2022-10-17T08:39:12.695Z,89.02
2022-10-17T08:42:03.576Z,88.99
2022-10-17T08:44:54.548Z,89.07
2022-10-17T08:47:36.070Z,88.91
2022-10-17T08:50:07.000Z,88.93
2022-10-17T08:53:03.120Z,88.99
2022-10-17T08:55:42.804Z,88.78
2022-10-17T08:58:17.271Z,88.56
2022-10-17T09:01:40.647Z,88.37
2022-10-17T09:04:14.454Z,88.58
2022-10-17T09:07:06.237Z,88.44
2022-10-17T09:09:49.504Z,88.37
2022-10-17T09:12:28.453Z,88.36
2022-10-17T09:15:14.475Z,88.30
2022-10-17T09:17:59.922Z,88.01
2022-10-17T09:20:39.451Z,88.07
2022-10-17T09:23:17.360Z,87.95
2022-10-17T09:25:50.674Z,87.91
2022-10-17T09:28:41.535Z,87.91
2022-10-17T09:31:23.462Z,87.62
2022-10-17T09:33:55.428Z,87.31
2022-10-17T09:36:32.917Z,87.36
2022-10-17T09:39:14.875Z,87.00
2022-10-17T09:41:52.223Z,87.13
2022-10-17T09:44:22.098Z,87.33
2022-10-17T09:47:21.403Z,87.15
2022-10-17T09:49:50.311Z,86.97
2022-10-17T09:52:33.501Z,86.76
2022-10-17T09:55:45.451Z,86.02
2022-10-17T09:58:13.375Z,85.85
2022-10-17T10:00:49.287Z,85.91
2022-10-17T10:03:27.057Z,85.07
2022-10-17T10:06:05.079Z,84.68
2022-10-17T10:08:38.050Z,85.26
2022-10-17T10:11:13.490Z,85.08
2022-10-17T10:13:44.043Z,84.80
2022-10-17T10:16:30.367Z,84.58
2022-10-17T10:18:59.466Z,84.42
2022-10-17T10:21:28.872Z,83.80
2022-10-17T10:23:59.719Z,84.28
2022-10-17T10:26:50.467Z,83.44
2022-10-17T10:29:34.827Z,83.30
2022-10-17T10:32:29.134Z,83.53
2022-10-17T10:35:34.564Z,83.52
2022-10-17T10:38:10.390Z,83.07
2022-10-17T10:40:49.533Z,82.75
2022-10-17T10:43:34.722Z,83.14
2022-10-17T10:46:28.412Z,82.18
2022-10-17T10:49:03.328Z,82.65
2022-10-17T10:51:42.596Z,82.60
2022-10-17T10:54:21.372Z,82.42
2022-10-17T10:57:01.255Z,82.26
2022-10-17T10:59:37.582Z,81.21
2022-10-17T11:02:33.595Z,81.10
2022-10-17T11:05:20.829Z,80.95
2022-10-17T11:08:09.298Z,80.51
2022-10-17T11:11:23.987Z,79.76
2022-10-17T11:14:19.911Z,79.06
2022-10-17T11:17:06.406Z,79.98
2022-10-17T11:19:59.473Z,79.57
2022-10-17T11:22:42.259Z,79.46
2022-10-17T11:25:34.452Z,79.97
2022-10-17T11:28:19.877Z,79.79
2022-10-17T11:31:03.382Z,78.61
2022-10-17T11:33:47.171Z,78.91
2022-10-17T11:36:18.609Z,79.02
2022-10-17T11:38:58.886Z,79.09
2022-10-17T11:41:57.518Z,78.37
2022-10-17T11:44:42.272Z,77.34
2022-10-17T11:47:55.251Z,76.92
2022-10-17T11:53:48.869Z,76.56
2022-10-17T11:56:42.968Z,76.36
2022-10-17T11:59:38.847Z,75.85
2022-10-17T12:02:21.772Z,75.65
2022-10-17T12:05:19.027Z,74.02
2022-10-17T12:08:09.730Z,73.30
2022-10-17T12:10:53.788Z,72.07
2022-10-17T12:13:33.598Z,72.52
2022-10-17T12:16:20.053Z,71.47
2022-10-17T12:19:12.191Z,71.90
2022-10-17T12:22:00.494Z,71.89
2022-10-17T12:24:38.945Z,72.45
2022-10-17T12:27:47.708Z,72.85
2022-10-17T12:30:27.022Z,73.18
2022-10-17T12:33:22.665Z,73.22
2022-10-17T12:36:12.391Z,72.28
2022-10-17T12:38:40.287Z,70.64
2022-10-17T12:41:08.434Z,70.07
2022-10-17T12:43:44.970Z,70.75
2022-10-17T12:46:33.771Z,70.50
2022-10-17T12:49:05.067Z,69.69
2022-10-17T12:52:11.091Z,69.25
2022-10-17T12:57:36.093Z,67.67
2022-10-17T13:00:30.160Z,66.05
2022-10-17T13:03:06.957Z,64.71
2022-10-17T13:05:40.340Z,64.40
2022-10-17T13:08:28.148Z,65.74
2022-10-17T13:10:57.645Z,65.05
2022-10-17T13:13:54.207Z,64.64
2022-10-17T13:16:35.924Z,64.13
2022-10-17T13:19:14.997Z,64.87
2022-10-17T13:22:06.940Z,65.24
2022-10-17T13:24:38.878Z,64.60
2022-10-17T13:27:30.955Z,64.99
2022-10-17T13:30:02.012Z,63.34
2022-10-17T13:32:39.698Z,63.62
2022-10-17T13:35:17.219Z,63.91
2022-10-17T13:37:51.577Z,63.36
2022-10-17T13:40:49.721Z,63.64
2022-10-17T13:43:26.313Z,63.91
2022-10-17T13:46:13.707Z,63.77
2022-10-17T13:48:49.803Z,63.90
2022-10-17T13:51:17.707Z,64.13
2022-10-17T13:53:45.651Z,63.51
2022-10-17T13:56:27.905Z,63.47
2022-10-17T13:59:02.154Z,64.22
2022-10-17T14:01:31.380Z,64.57
2022-10-17T14:04:09.253Z,64.34
2022-10-17T14:06:49.266Z,64.06
2022-10-17T14:09:26.919Z,64.86
2022-10-17T14:12:16.587Z,64.28
2022-10-17T14:15:09.745Z,64.01
2022-10-17T14:17:40.085Z,64.41
2022-10-17T14:23:38.759Z,64.04
2022-10-17T14:26:21.427Z,64.01
2022-10-17T14:29:07.426Z,64.68
2022-10-17T14:31:37.241Z,64.79
2022-10-17T14:34:05.785Z,64.75
2022-10-17T14:36:40.760Z,63.47
2022-10-17T14:39:22.045Z,63.97
2022-10-17T14:41:51.583Z,63.37
2022-10-17T14:44:30.662Z,62.58
2022-10-17T14:47:37.962Z,62.43
2022-10-17T14:50:21.751Z,63.22
2022-10-17T14:53:11.394Z,63.78
2022-10-17T14:55:58.286Z,64.24
2022-10-17T14:58:30.224Z,64.07
2022-10-17T15:01:00.991Z,63.75
2022-10-17T15:03:29.758Z,64.72
2022-10-17T15:05:58.425Z,64.15
2022-10-17T15:08:26.393Z,64.63
2022-10-17T15:10:54.366Z,64.72
2022-10-17T15:13:32.152Z,64.51
2022-10-17T15:16:17.874Z,63.96
2022-10-17T15:18:46.138Z,64.32
2022-10-17T15:21:26.432Z,64.89
2022-10-17T15:24:06.166Z,64.46
2022-10-17T15:26:34.991Z,63.98
2022-10-17T15:29:03.696Z,63.67
2022-10-17T15:31:31.851Z,62.61
2022-10-17T15:33:59.755Z,62.59
2022-10-17T15:36:39.113Z,63.00
2022-10-17T15:39:07.664Z,63.18
2022-10-17T15:41:35.634Z,63.16
2022-10-17T15:44:03.732Z,62.62
2022-10-17T15:46:35.473Z,62.51
2022-10-17T15:49:12.403Z,62.41
2022-10-17T15:51:41.201Z,63.21
2022-10-17T15:54:09.433Z,63.88
2022-10-17T15:56:41.238Z,64.20
2022-10-17T15:59:17.967Z,64.55
2022-10-17T16:01:46.064Z,64.72
2022-10-17T16:04:15.638Z,65.50
2022-10-17T16:06:43.610Z,65.80
2022-10-17T16:09:11.484Z,66.12
2022-10-17T16:11:42.962Z,65.89
2022-10-17T16:14:16.423Z,66.22
2022-10-17T16:16:44.813Z,66.09
2022-10-17T16:19:13.013Z,66.61
2022-10-17T16:21:41.959Z,67.08
2022-10-17T16:24:12.223Z,67.30
2022-10-17T16:26:41.119Z,67.62
2022-10-17T16:29:10.130Z,67.64
2022-10-17T16:31:43.483Z,68.04
2022-10-17T16:34:14.081Z,68.62
2022-10-17T16:36:42.927Z,69.18
2022-10-17T16:39:10.847Z,68.94
2022-10-17T16:41:39.604Z,69.35
2022-10-17T16:44:14.528Z,69.56
2022-10-17T16:46:42.393Z,69.98
2022-10-17T16:49:10.768Z,69.89
2022-10-17T16:51:38.544Z,70.50
2022-10-17T16:54:06.459Z,71.04
2022-10-17T16:56:34.468Z,71.52
2022-10-17T16:59:02.523Z,71.84
2022-10-17T17:01:30.628Z,72.53
2022-10-17T17:03:58.879Z,72.79
2022-10-17T17:06:30.609Z,72.62
2022-10-17T17:08:59.052Z,72.79
2022-10-17T17:11:28.655Z,73.12
2022-10-17T17:13:58.750Z,73.33
2022-10-17T17:16:28.010Z,73.68
2022-10-17T17:19:00.092Z,74.26
2022-10-17T17:21:28.224Z,74.52
2022-10-17T17:23:59.265Z,74.84
2022-10-17T17:26:31.220Z,74.94
2022-10-17T17:29:00.788Z,75.13
2022-10-17T17:31:32.417Z,75.24
2022-10-17T17:34:01.253Z,75.34
2022-10-17T17:36:33.942Z,75.35
2022-10-17T17:39:05.959Z,75.39
2022-10-17T17:41:35.062Z,75.82
2022-10-17T17:44:04.570Z,75.94
2022-10-17T17:46:32.991Z,75.75
2022-10-17T17:49:01.800Z,75.99
2022-10-17T17:51:29.819Z,76.46
2022-10-17T17:53:57.903Z,76.81
2022-10-17T17:56:29.281Z,77.18
2022-10-17T17:59:00.182Z,77.32
2022-10-17T18:01:36.673Z,77.58
2022-10-17T18:04:08.729Z,77.73
2022-10-17T18:06:38.400Z,77.94
2022-10-17T18:09:07.218Z,77.79
2022-10-17T18:11:37.046Z,77.90
2022-10-17T18:14:11.241Z,78.03
2022-10-17T18:16:39.262Z,78.08
2022-10-17T18:19:10.488Z,78.16
2022-10-17T18:21:38.428Z,78.12
2022-10-17T18:24:06.999Z,78.39
2022-10-17T18:26:35.168Z,78.40
2022-10-17T18:29:04.299Z,77.97
2022-10-17T18:31:36.059Z,78.00
2022-10-17T18:34:05.879Z,77.90
2022-10-17T18:36:35.336Z,78.28
2022-10-17T18:39:05.310Z,78.51
2022-10-17T18:41:33.996Z,78.50
2022-10-17T18:44:05.353Z,78.61
2022-10-17T18:46:40.736Z,78.71
2022-10-17T18:49:16.314Z,78.70
2022-10-17T18:51:45.792Z,78.98
2022-10-17T18:54:20.556Z,78.81
2022-10-17T18:56:54.591Z,78.90
2022-10-17T18:59:22.852Z,78.66
2022-10-17T19:01:50.799Z,78.50
2022-10-17T19:04:18.834Z,78.55
2022-10-17T19:06:46.864Z,78.82
2022-10-17T19:09:15.547Z,79.21
2022-10-17T19:11:44.115Z,79.47
2022-10-17T19:14:13.850Z,79.44
2022-10-17T19:16:46.733Z,79.47
2022-10-17T19:19:17.194Z,79.39
2022-10-17T19:21:45.202Z,79.49
2022-10-17T19:24:17.871Z,79.55
2022-10-17T19:26:47.608Z,79.72
2022-10-17T19:29:18.228Z,79.94
2022-10-17T19:31:47.620Z,80.18
2022-10-17T19:34:17.335Z,80.17
2022-10-17T19:36:45.889Z,80.20
2022-10-17T19:39:18.126Z,80.38
2022-10-17T19:41:48.116Z,80.36
2022-10-17T19:44:16.941Z,80.28
2022-10-17T19:46:46.857Z,80.36
2022-10-17T19:49:15.630Z,80.34
2022-10-17T19:51:44.782Z,80.19
2022-10-17T19:54:15.107Z,80.35
2022-10-17T19:56:43.543Z,80.45
2022-10-17T19:59:14.465Z,80.53
2022-10-17T20:01:43.239Z,80.55
2022-10-17T20:04:12.639Z,80.45
2022-10-17T20:06:43.050Z,80.52
2022-10-17T20:09:15.821Z,80.56
2022-10-17T20:11:45.575Z,80.72
2022-10-17T20:14:13.704Z,81.01
2022-10-17T20:16:42.291Z,81.05
2022-10-17T20:19:12.791Z,81.06
2022-10-17T20:21:40.705Z,81.12
2022-10-17T20:24:15.372Z,81.16
2022-10-17T20:26:44.470Z,81.35
2022-10-17T20:29:19.700Z,81.53
2022-10-17T20:31:48.255Z,81.67
2022-10-17T20:34:18.930Z,81.79
2022-10-17T20:36:47.967Z,81.82
2022-10-17T20:39:19.194Z,81.79
2022-10-17T20:41:47.413Z,81.87
2022-10-17T20:44:15.665Z,81.85
2022-10-17T20:46:52.896Z,82.05
2022-10-17T20:49:28.422Z,81.97
2022-10-17T20:51:56.770Z,82.14
2022-10-17T20:54:25.398Z,82.15
2022-10-17T20:56:53.646Z,82.19
2022-10-17T20:59:21.627Z,82.08
2022-10-17T21:01:49.586Z,82.35
2022-10-17T21:07:06.189Z,82.42
2022-10-17T21:09:34.047Z,82.39
2022-10-17T21:12:04.283Z,82.53
2022-10-17T21:14:33.419Z,82.60
2022-10-17T21:17:04.935Z,82.75
2022-10-17T21:19:33.576Z,83.08
2022-10-17T21:22:01.821Z,83.29
2022-10-17T21:24:30.802Z,83.14
2022-10-17T21:26:58.900Z,82.92
2022-10-17T21:29:26.892Z,82.79
2022-10-17T21:31:54.740Z,82.87
2022-10-17T21:34:25.058Z,83.10
2022-10-17T21:36:53.248Z,83.15
2022-10-17T21:39:22.947Z,83.10
2022-10-17T21:41:52.194Z,82.89
2022-10-17T21:44:24.822Z,83.00
2022-10-17T21:46:54.304Z,82.99
2022-10-17T21:49:24.805Z,82.81
2022-10-17T21:51:53.589Z,82.85
2022-10-17T21:54:23.604Z,83.03
2022-10-17T21:56:51.951Z,82.93
2022-10-17T21:59:19.968Z,82.91
2022-10-17T22:01:47.997Z,83.32
2022-10-17T22:04:18.680Z,83.12
2022-10-17T22:06:51.211Z,83.14
2022-10-17T22:09:25.797Z,83.33
2022-10-17T22:11:56.789Z,83.48
2022-10-17T22:14:26.918Z,83.83
2022-10-17T22:16:55.461Z,83.83
2022-10-17T22:19:26.664Z,83.83
2022-10-17T22:21:55.283Z,84.01
2022-10-17T22:24:23.849Z,84.02
2022-10-17T22:26:52.463Z,83.98
2022-10-17T22:29:20.842Z,83.97
2022-10-17T22:31:48.801Z,83.83
2022-10-17T22:34:18.353Z,83.77
2022-10-17T22:36:47.850Z,84.03
2022-10-17T22:39:16.043Z,84.19
2022-10-17T22:41:44.265Z,84.39
2022-10-17T22:44:12.236Z,84.39
2022-10-17T22:46:40.053Z,84.33
2022-10-17T22:49:08.557Z,84.13
2022-10-17T22:51:36.758Z,83.93
2022-10-17T22:54:04.709Z,83.68
2022-10-17T22:56:32.686Z,83.47
2022-10-17T22:59:00.651Z,83.48
2022-10-17T23:01:28.547Z,83.48
2022-10-17T23:03:56.513Z,83.62
2022-10-17T23:06:24.588Z,83.78
2022-10-17T23:08:52.513Z,83.72
2022-10-17T23:11:21.064Z,83.91
2022-10-17T23:13:49.386Z,83.93
2022-10-17T23:16:17.382Z,84.11
2022-10-17T23:18:45.450Z,84.39
2022-10-17T23:21:13.596Z,84.16
2022-10-17T23:23:41.893Z,84.39
2022-10-17T23:26:13.345Z,84.41
2022-10-17T23:28:42.496Z,84.22
2022-10-17T23:31:10.404Z,84.18
2022-10-17T23:33:41.280Z,84.23
2022-10-17T23:36:11.948Z,84.21
2022-10-17T23:38:42.430Z,84.45
2022-10-17T23:41:10.891Z,84.59
2022-10-17T23:43:39.093Z,84.75
2022-10-17T23:46:07.911Z,84.62
2022-10-17T23:48:35.920Z,84.75
2022-10-17T23:51:04.444Z,84.62
2022-10-17T23:53:32.386Z,84.76
2022-10-17T23:56:00.275Z,85.05
2022-10-17T23:58:28.646Z,85.06
